createdAt,value
2022-10-09T00:00:24.575Z,7.03
2022-10-09T00:03:09.689Z,5.63
2022-10-09T00:05:54.497Z,5.82
2022-10-09T00:08:40.820Z,8.20
2022-10-09T00:11:27.602Z,8.27
2022-10-09T00:14:12.654Z,9.27
2022-10-09T00:16:57.772Z,7.60
2022-10-09T00:19:42.806Z,6.63
2022-10-09T00:22:27.951Z,6.82
2022-10-09T00:25:12.804Z,7.63
2022-10-09T00:27:59.021Z,5.88
2022-10-09T00:30:45.217Z,9.07
2022-10-09T00:33:30.258Z,8.60
2022-10-09T00:36:18.439Z,8.05
2022-10-09T00:39:03.243Z,7.40
2022-10-09T00:41:48.373Z,9.52
2022-10-09T00:44:57.763Z,10.97
2022-10-09T00:47:47.804Z,8.77
2022-10-09T00:50:44.521Z,6.68
2022-10-09T00:53:30.632Z,6.70
2022-10-09T00:56:15.515Z,6.63
2022-10-09T00:59:01.380Z,7.37
2022-10-09T01:01:47.191Z,8.68
2022-10-09T01:04:31.884Z,8.43
2022-10-09T01:07:48.971Z,4.97
2022-10-09T01:10:41.486Z,7.18
2022-10-09T01:13:39.067Z,5.47
2022-10-09T01:16:32.128Z,7.45
2022-10-09T01:19:38.653Z,11.43
2022-10-09T01:22:38.882Z,6.60
2022-10-09T01:25:34.394Z,9.35
2022-10-09T01:28:23.590Z,8.90
2022-10-09T01:31:09.801Z,10.75
2022-10-09T01:33:54.653Z,8.23
2022-10-09T01:36:42.271Z,9.68
2022-10-09T01:39:29.691Z,8.98
2022-10-09T01:42:16.036Z,5.70
2022-10-09T01:45:00.910Z,6.13
2022-10-09T01:47:46.281Z,5.10
2022-10-09T01:50:37.381Z,5.20
2022-10-09T01:53:24.299Z,7.75
2022-10-09T01:56:14.363Z,6.53
2022-10-09T01:59:03.911Z,7.97
2022-10-09T02:01:51.403Z,11.30
2022-10-09T02:04:43.407Z,5.95
2022-10-09T02:07:31.184Z,6.68
2022-10-09T02:10:18.481Z,5.17
2022-10-09T02:13:04.160Z,5.20
2022-10-09T02:15:54.922Z,5.65
2022-10-09T02:18:45.365Z,4.07
2022-10-09T02:21:46.458Z,7.00
2022-10-09T02:24:32.793Z,6.87
2022-10-09T02:27:20.017Z,7.53
2022-10-09T02:30:08.198Z,6.65
2022-10-09T02:32:54.338Z,10.48
2022-10-09T02:35:40.244Z,5.28
2022-10-09T02:38:25.288Z,4.67
2022-10-09T02:41:10.084Z,5.65
2022-10-09T02:43:55.469Z,4.78
2022-10-09T02:46:40.254Z,5.45
2022-10-09T02:49:25.610Z,10.43
2022-10-09T02:52:10.798Z,5.87
2022-10-09T02:54:55.860Z,8.60
2022-10-09T02:57:40.988Z,6.78
2022-10-09T03:00:26.087Z,5.05
2022-10-09T03:03:11.318Z,4.85
2022-10-09T03:06:04.071Z,5.30
2022-10-09T03:08:50.223Z,6.80
2022-10-09T03:11:35.364Z,6.85
2022-10-09T03:14:20.367Z,4.88
2022-10-09T03:17:05.523Z,5.30
2022-10-09T03:19:50.690Z,6.00
2022-10-09T03:22:35.671Z,5.88
2022-10-09T03:25:20.674Z,8.48
2022-10-09T03:28:05.928Z,5.18
2022-10-09T03:30:52.037Z,5.93
2022-10-09T03:33:37.573Z,4.90
2022-10-09T03:36:22.365Z,8.75
2022-10-09T03:39:08.098Z,6.00
2022-10-09T03:41:53.180Z,6.70
2022-10-09T03:44:38.293Z,4.82
2022-10-09T03:47:23.046Z,5.40
2022-10-09T03:50:08.511Z,7.80
2022-10-09T03:52:53.697Z,7.25
2022-10-09T03:55:39.150Z,7.90
2022-10-09T03:58:24.258Z,6.50
2022-10-09T04:01:09.487Z,6.17
2022-10-09T04:03:54.211Z,5.60
2022-10-09T04:06:39.356Z,5.38
2022-10-09T04:09:24.505Z,6.70
2022-10-09T04:12:09.315Z,9.20
2022-10-09T04:14:54.456Z,6.47
2022-10-09T04:17:39.896Z,5.55
2022-10-09T04:20:24.754Z,5.72
2022-10-09T04:23:09.607Z,6.05
2022-10-09T04:25:56.335Z,8.85
2022-10-09T04:28:41.566Z,12.90
2022-10-09T04:31:26.636Z,13.43
2022-10-09T04:34:11.437Z,14.10
2022-10-09T04:36:56.680Z,13.68
2022-10-09T04:39:41.524Z,15.52
2022-10-09T04:42:26.632Z,15.00
2022-10-09T04:45:11.588Z,16.48
2022-10-09T04:47:56.622Z,11.43
2022-10-09T04:50:41.705Z,11.25
2022-10-09T04:53:26.728Z,14.75
2022-10-09T04:56:14.813Z,11.37
2022-10-09T04:58:59.724Z,14.93
2022-10-09T05:01:45.034Z,13.40
2022-10-09T05:04:30.307Z,17.05
2022-10-09T05:07:15.254Z,11.95
2022-10-09T05:10:00.478Z,10.63
2022-10-09T05:12:45.905Z,11.90
2022-10-09T05:15:31.758Z,11.63
2022-10-09T05:18:16.691Z,9.70
2022-10-09T05:21:05.366Z,10.48
2022-10-09T05:23:50.713Z,12.03
2022-10-09T05:26:35.667Z,9.25
2022-10-09T05:29:20.604Z,10.20
2022-10-09T05:32:05.849Z,9.57
2022-10-09T05:34:50.899Z,9.32
2022-10-09T05:37:36.004Z,8.00
2022-10-09T05:40:22.040Z,11.07
2022-10-09T05:43:08.131Z,8.77
2022-10-09T05:45:53.659Z,6.38
2022-10-09T05:48:40.586Z,7.03
2022-10-09T05:51:27.285Z,7.47
2022-10-09T05:54:16.996Z,8.40
2022-10-09T05:57:01.881Z,14.63
2022-10-09T05:59:47.503Z,8.30
2022-10-09T06:02:32.816Z,8.02
2022-10-09T06:05:17.593Z,9.83
2022-10-09T06:08:02.773Z,9.65
2022-10-09T06:10:47.845Z,7.82
2022-10-09T06:13:32.945Z,19.05
2022-10-09T06:16:18.528Z,8.85
2022-10-09T06:19:04.599Z,15.73
2022-10-09T06:21:50.432Z,10.55
2022-10-09T06:24:35.449Z,13.35
2022-10-09T06:27:20.311Z,18.75
2022-10-09T06:30:05.893Z,11.65
2022-10-09T06:32:51.844Z,9.43
2022-10-09T06:35:37.228Z,6.07
2022-10-09T06:38:22.374Z,7.60
2022-10-09T06:41:10.445Z,19.50
2022-10-09T06:44:06.542Z,13.27
2022-10-09T06:46:51.617Z,12.70
2022-10-09T06:49:36.564Z,26.67
2022-10-09T06:52:21.503Z,16.75
2022-10-09T06:55:06.913Z,17.17
2022-10-09T06:57:51.726Z,14.95
2022-10-09T07:00:37.027Z,20.57
2022-10-09T07:03:21.896Z,10.32
2022-10-09T07:06:13.134Z,17.70
2022-10-09T07:09:01.065Z,14.95
2022-10-09T07:11:48.898Z,10.35
2022-10-09T07:14:34.000Z,17.67
2022-10-09T07:17:18.991Z,8.82
2022-10-09T07:20:04.338Z,11.43
2022-10-09T07:22:49.560Z,8.52
2022-10-09T07:25:38.458Z,12.82
2022-10-09T07:28:25.200Z,16.27
2022-10-09T07:31:11.528Z,16.38
2022-10-09T07:33:57.761Z,15.65
2022-10-09T07:36:42.970Z,10.82
2022-10-09T07:39:27.738Z,17.50
2022-10-09T07:42:12.411Z,19.47
2022-10-09T07:44:57.369Z,12.13
2022-10-09T07:47:42.384Z,9.32
2022-10-09T07:50:27.531Z,11.45
2022-10-09T07:53:12.793Z,16.25
2022-10-09T07:55:57.504Z,11.60
2022-10-09T07:58:43.498Z,12.02
2022-10-09T08:01:30.240Z,12.52
2022-10-09T08:04:15.236Z,9.48
2022-10-09T08:07:00.329Z,14.68
2022-10-09T08:09:45.407Z,17.03
2022-10-09T08:12:30.471Z,15.60
2022-10-09T08:15:15.754Z,15.15
2022-10-09T08:18:00.965Z,21.35
2022-10-09T08:20:56.555Z,13.95
2022-10-09T08:23:42.724Z,11.93
2022-10-09T08:26:29.645Z,12.48
2022-10-09T08:29:16.380Z,13.80
2022-10-09T08:32:01.349Z,14.77
2022-10-09T08:34:46.890Z,13.60
2022-10-09T08:37:32.099Z,13.40
2022-10-09T08:40:20.823Z,14.20
2022-10-09T08:43:07.267Z,12.73
2022-10-09T08:45:52.567Z,12.77
2022-10-09T08:48:43.732Z,14.50
2022-10-09T08:51:33.104Z,14.53
2022-10-09T08:54:35.259Z,14.55
2022-10-09T08:57:21.581Z,14.63
2022-10-09T09:00:17.791Z,14.23
2022-10-09T09:03:41.806Z,15.80
2022-10-09T09:06:46.363Z,13.60
2022-10-09T09:10:12.740Z,16.73
2022-10-09T09:13:34.818Z,12.65
2022-10-09T09:16:45.410Z,13.50
2022-10-09T09:19:50.738Z,14.38
2022-10-09T09:22:39.657Z,15.03
2022-10-09T09:25:28.847Z,10.80
2022-10-09T09:28:20.016Z,10.43
2022-10-09T09:31:24.740Z,10.98
2022-10-09T09:34:25.032Z,11.10
2022-10-09T09:37:11.786Z,17.30
2022-10-09T09:43:04.917Z,9.48
2022-10-09T09:45:58.620Z,9.70
2022-10-09T09:48:47.246Z,9.90
2022-10-09T09:51:32.833Z,9.33
2022-10-09T09:57:13.014Z,12.75
2022-10-09T10:00:21.971Z,9.73
2022-10-09T10:06:02.879Z,8.17
2022-10-09T10:09:04.467Z,7.00
2022-10-09T10:11:59.329Z,8.90
2022-10-09T10:14:50.730Z,7.88
2022-10-09T10:17:36.925Z,8.95
2022-10-09T10:20:22.611Z,7.27
2022-10-09T10:23:33.181Z,5.15
2022-10-09T10:26:35.623Z,4.60
2022-10-09T10:29:24.953Z,4.53
2022-10-09T10:32:32.261Z,7.40
2022-10-09T10:35:22.348Z,4.33
2022-10-09T10:38:18.648Z,5.28
2022-10-09T10:41:12.632Z,4.05
2022-10-09T10:44:06.881Z,6.28
2022-10-09T10:47:02.179Z,5.72
2022-10-09T10:49:47.459Z,8.87
2022-10-09T10:52:57.216Z,4.53
2022-10-09T10:55:55.647Z,4.50
2022-10-09T10:59:04.580Z,3.38
2022-10-09T11:02:16.004Z,3.72
2022-10-09T11:05:46.858Z,8.20
2022-10-09T11:08:41.490Z,5.07
2022-10-09T11:11:35.869Z,5.30
2022-10-09T11:14:44.021Z,5.47
2022-10-09T11:17:44.833Z,9.32
2022-10-09T11:20:38.785Z,4.57
2022-10-09T11:23:43.013Z,5.72
2022-10-09T11:26:53.761Z,4.50
2022-10-09T11:29:47.828Z,4.53
2022-10-09T11:32:38.608Z,5.38
2022-10-09T11:35:37.447Z,5.90
2022-10-09T11:38:33.262Z,4.50
2022-10-09T11:41:19.810Z,4.20
2022-10-09T11:44:18.239Z,5.28
2022-10-09T11:47:16.631Z,4.90
2022-10-09T11:50:49.029Z,4.57
2022-10-09T11:53:36.877Z,4.30
2022-10-09T11:56:23.175Z,2.58
2022-10-09T11:59:21.919Z,2.28
2022-10-09T12:02:25.947Z,4.47
2022-10-09T12:05:20.017Z,5.63
2022-10-09T12:08:31.367Z,2.97
2022-10-09T12:11:19.782Z,3.92
2022-10-09T12:14:07.579Z,3.30
2022-10-09T12:16:52.885Z,1.92
2022-10-09T12:19:40.215Z,4.37
2022-10-09T12:22:56.360Z,2.55
2022-10-09T12:25:47.460Z,2.63
2022-10-09T12:28:39.136Z,2.85
2022-10-09T12:31:33.833Z,6.45
2022-10-09T12:34:23.953Z,4.77
2022-10-09T12:37:22.622Z,4.25
2022-10-09T12:40:16.206Z,3.72
2022-10-09T12:43:09.799Z,2.30
2022-10-09T12:45:55.604Z,4.03
2022-10-09T12:48:43.521Z,4.53
2022-10-09T12:51:30.939Z,2.40
2022-10-09T12:54:16.148Z,2.08
2022-10-09T12:57:04.720Z,2.22
2022-10-09T12:59:53.048Z,2.88
2022-10-09T13:02:38.358Z,2.73
2022-10-09T13:05:23.576Z,1.95
2022-10-09T13:08:24.098Z,3.08
2022-10-09T13:11:29.159Z,3.65
2022-10-09T13:14:38.682Z,2.05
2022-10-09T13:17:29.762Z,3.80
2022-10-09T13:20:17.661Z,2.53
2022-10-09T13:23:05.287Z,1.58
2022-10-09T13:25:51.882Z,3.13
2022-10-09T13:28:40.200Z,2.15
2022-10-09T13:31:27.022Z,3.73
2022-10-09T13:34:13.291Z,3.65
2022-10-09T13:36:58.633Z,4.80
2022-10-09T13:39:43.953Z,2.92
2022-10-09T13:42:33.797Z,4.13
2022-10-09T13:45:19.035Z,7.13
2022-10-09T13:48:03.773Z,4.97
2022-10-09T13:50:49.323Z,4.65
2022-10-09T13:53:35.833Z,2.25
2022-10-09T13:56:21.514Z,3.47
2022-10-09T13:59:06.624Z,4.07
2022-10-09T14:01:52.307Z,4.82
2022-10-09T14:04:37.292Z,4.55
2022-10-09T14:07:22.067Z,3.85
2022-10-09T14:10:07.483Z,3.42
2022-10-09T14:12:52.843Z,4.97
2022-10-09T14:15:41.695Z,3.88
2022-10-09T14:18:26.907Z,3.63
2022-10-09T14:21:15.345Z,4.28
2022-10-09T14:24:02.700Z,3.70
2022-10-09T14:26:51.498Z,5.43
2022-10-09T14:29:42.190Z,3.17
2022-10-09T14:32:27.743Z,3.28
2022-10-09T14:35:19.358Z,3.97
2022-10-09T14:38:06.402Z,4.97
2022-10-09T14:40:51.493Z,2.30
2022-10-09T14:43:39.671Z,2.85
2022-10-09T14:46:26.334Z,2.72
2022-10-09T14:49:11.456Z,3.33
2022-10-09T14:51:56.886Z,3.05
2022-10-09T14:54:41.984Z,2.87
2022-10-09T14:57:29.287Z,2.55
2022-10-09T15:00:18.079Z,2.47
2022-10-09T15:03:03.253Z,4.05
2022-10-09T15:05:48.260Z,3.03
2022-10-09T15:08:35.295Z,4.80
2022-10-09T15:11:20.559Z,3.25
2022-10-09T15:14:05.682Z,3.28
2022-10-09T15:16:51.884Z,3.28
2022-10-09T15:19:37.651Z,3.70
2022-10-09T15:22:22.521Z,3.43
2022-10-09T15:25:08.307Z,3.83
2022-10-09T15:27:54.892Z,2.92
2022-10-09T15:30:44.643Z,2.50
2022-10-09T15:33:29.756Z,3.03
2022-10-09T15:36:16.900Z,2.90
2022-10-09T15:39:05.797Z,3.80
2022-10-09T15:41:50.930Z,4.35
2022-10-09T15:44:36.049Z,4.05
2022-10-09T15:47:39.156Z,6.40
2022-10-09T15:50:25.844Z,6.53
2022-10-09T15:53:14.672Z,6.30
2022-10-09T15:56:06.188Z,3.42
2022-10-09T15:58:52.744Z,2.92
2022-10-09T16:01:37.845Z,5.05
2022-10-09T16:04:23.054Z,3.13
2022-10-09T16:07:07.917Z,5.07
2022-10-09T16:09:55.083Z,3.25
2022-10-09T16:12:40.324Z,6.53
2022-10-09T16:15:25.367Z,3.03
2022-10-09T16:18:11.030Z,4.87
2022-10-09T16:20:56.263Z,5.45
2022-10-09T16:23:43.314Z,11.77
2022-10-09T16:26:31.082Z,4.70
2022-10-09T16:29:16.154Z,10.07
2022-10-09T16:32:01.379Z,6.63
2022-10-09T16:34:49.549Z,6.00
2022-10-09T16:37:34.653Z,5.10
2022-10-09T16:40:21.057Z,4.53
2022-10-09T16:43:11.026Z,5.68
2022-10-09T16:45:56.040Z,8.27
2022-10-09T16:48:41.293Z,7.35
2022-10-09T16:51:36.134Z,6.82
2022-10-09T16:54:21.109Z,5.25
2022-10-09T16:57:06.990Z,5.72
2022-10-09T16:59:51.849Z,6.33
2022-10-09T17:02:36.881Z,4.28
2022-10-09T17:05:21.825Z,5.00
2022-10-09T17:08:07.133Z,5.50
2022-10-09T17:10:52.238Z,4.43
2022-10-09T17:13:37.605Z,4.87
2022-10-09T17:16:24.729Z,6.97
2022-10-09T17:19:10.101Z,5.28
2022-10-09T17:21:55.132Z,3.83
2022-10-09T17:24:40.263Z,5.80
2022-10-09T17:27:25.260Z,6.43
2022-10-09T17:30:10.848Z,6.53
2022-10-09T17:32:56.063Z,5.03
2022-10-09T17:35:41.490Z,6.07
2022-10-09T17:38:27.887Z,11.05
2022-10-09T17:41:14.772Z,7.77
2022-10-09T17:43:59.736Z,7.22
2022-10-09T17:46:44.662Z,11.05
2022-10-09T17:49:29.439Z,6.50
2022-10-09T17:52:14.567Z,8.55
2022-10-09T17:54:59.388Z,7.10
2022-10-09T17:57:44.507Z,8.45
2022-10-09T18:00:29.906Z,9.85
2022-10-09T18:03:17.296Z,11.48
2022-10-09T18:06:06.442Z,10.57
2022-10-09T18:08:54.253Z,10.03
2022-10-09T18:11:39.583Z,9.95
2022-10-09T18:14:24.656Z,11.43
2022-10-09T18:17:09.867Z,11.73
2022-10-09T18:19:54.938Z,10.40
2022-10-09T18:22:40.097Z,13.87
2022-10-09T18:25:24.917Z,8.57
2022-10-09T18:28:11.443Z,10.23
2022-10-09T18:30:58.917Z,9.93
2022-10-09T18:33:44.190Z,10.15
2022-10-09T18:36:34.362Z,9.90
2022-10-09T18:39:21.377Z,10.35
2022-10-09T18:42:06.425Z,11.63
2022-10-09T18:44:51.405Z,12.13
2022-10-09T18:47:36.700Z,13.07
2022-10-09T18:50:22.064Z,14.67
2022-10-09T18:53:07.685Z,14.48
2022-10-09T18:55:52.878Z,12.55
2022-10-09T18:58:40.266Z,13.77
2022-10-09T19:01:25.081Z,9.90
2022-10-09T19:04:09.945Z,10.87
2022-10-09T19:06:55.250Z,14.75
2022-10-09T19:09:40.915Z,13.95
2022-10-09T19:12:26.377Z,11.77
2022-10-09T19:15:12.382Z,13.90
2022-10-09T19:17:57.458Z,17.03
2022-10-09T19:20:42.713Z,10.95
2022-10-09T19:23:27.693Z,13.88
2022-10-09T19:26:13.544Z,12.40
2022-10-09T19:28:59.792Z,11.55
2022-10-09T19:31:44.885Z,11.87
2022-10-09T19:34:30.277Z,13.18
2022-10-09T19:37:15.328Z,13.68
2022-10-09T19:40:00.117Z,13.45
2022-10-09T19:42:45.301Z,12.35
2022-10-09T19:45:31.094Z,10.97
2022-10-09T19:48:18.030Z,12.77
2022-10-09T19:51:07.971Z,13.75
2022-10-09T19:53:53.480Z,15.43
2022-10-09T19:56:40.015Z,14.48
2022-10-09T19:59:28.463Z,15.43
2022-10-09T20:02:13.496Z,16.45
2022-10-09T20:04:58.773Z,16.27
2022-10-09T20:07:44.355Z,18.27
2022-10-09T20:10:30.165Z,19.10
2022-10-09T20:13:15.488Z,17.90
2022-10-09T20:16:02.632Z,17.73
2022-10-09T20:18:48.135Z,15.95
2022-10-09T20:21:34.386Z,15.38
2022-10-09T20:24:19.945Z,11.68
2022-10-09T20:27:05.951Z,9.83
2022-10-09T20:29:52.897Z,11.68
2022-10-09T20:32:38.033Z,9.80
2022-10-09T20:35:23.032Z,10.48
2022-10-09T20:38:08.985Z,11.45
2022-10-09T20:40:54.535Z,16.07
2022-10-09T20:43:40.142Z,9.23
2022-10-09T20:46:27.895Z,9.82
2022-10-09T20:49:14.136Z,10.80
2022-10-09T20:51:59.498Z,11.07
2022-10-09T20:54:44.377Z,10.30
2022-10-09T20:57:29.203Z,9.23
2022-10-09T21:00:14.479Z,10.38
2022-10-09T21:02:59.590Z,9.77
2022-10-09T21:05:44.682Z,10.93
2022-10-09T21:08:29.606Z,9.30
2022-10-09T21:11:17.185Z,13.27
2022-10-09T21:14:03.727Z,7.78
2022-10-09T21:16:48.997Z,10.15
2022-10-09T21:19:34.176Z,8.63
2022-10-09T21:22:19.133Z,8.03
2022-10-09T21:25:04.548Z,9.52
2022-10-09T21:27:49.405Z,9.48
2022-10-09T21:30:41.532Z,8.43
2022-10-09T21:33:26.775Z,9.57
2022-10-09T21:36:16.582Z,7.27
2022-10-09T21:39:02.786Z,7.88
2022-10-09T21:41:47.887Z,7.00
2022-10-09T21:44:32.953Z,9.93
2022-10-09T21:47:18.704Z,9.90
2022-10-09T21:50:04.119Z,9.13
2022-10-09T21:52:49.727Z,10.23
2022-10-09T21:55:37.555Z,9.57
2022-10-09T21:58:22.669Z,9.93
2022-10-09T22:01:08.154Z,9.02
2022-10-09T22:03:53.861Z,9.50
2022-10-09T22:06:40.974Z,9.95
2022-10-09T22:09:26.155Z,8.25
2022-10-09T22:12:11.952Z,6.72
2022-10-09T22:14:57.474Z,10.20
2022-10-09T22:17:42.461Z,7.53
2022-10-09T22:20:28.247Z,9.85
2022-10-09T22:23:13.818Z,7.78
2022-10-09T22:26:02.296Z,8.63
2022-10-09T22:28:48.527Z,6.82
2022-10-09T22:31:33.505Z,8.50
2022-10-09T22:34:19.252Z,6.53
2022-10-09T22:37:04.544Z,6.90
2022-10-09T22:39:49.408Z,7.70
2022-10-09T22:42:34.652Z,6.93
2022-10-09T22:45:19.615Z,10.00
2022-10-09T22:48:04.759Z,7.63
2022-10-09T22:50:51.904Z,6.00
2022-10-09T22:53:38.099Z,9.50
2022-10-09T22:56:26.920Z,6.70
2022-10-09T22:59:15.638Z,8.37
2022-10-09T23:02:00.800Z,5.97
2022-10-09T23:04:45.759Z,7.38
2022-10-09T23:07:30.537Z,6.50
2022-10-09T23:10:15.673Z,6.15
2022-10-09T23:13:00.820Z,5.83
2022-10-09T23:15:45.926Z,6.75
2022-10-09T23:18:32.058Z,7.72
2022-10-09T23:21:19.858Z,8.07
2022-10-09T23:24:06.030Z,10.32
2022-10-09T23:26:52.109Z,6.13
2022-10-09T23:29:36.913Z,6.93
2022-10-09T23:32:21.768Z,8.10
2022-10-09T23:35:07.253Z,7.38
2022-10-09T23:37:55.648Z,9.05
2022-10-09T23:40:40.948Z,7.17
2022-10-09T23:43:27.058Z,8.48
2022-10-09T23:46:15.075Z,6.22
2022-10-09T23:49:00.532Z,9.02
2022-10-09T23:51:48.190Z,7.57
2022-10-09T23:54:33.360Z,5.13
2022-10-09T23:57:18.926Z,5.80
